Time;durP1;ratioP1;P1;durP2;ratioP2;P2;SDS_P1;SDS_P2;PMS_P1;PMS_P2;Temp;Humidity;BMP_temperature;BMP_pressure;BME280_temperature;BME280_humidity;BME280_pressure;Samples;Min_cycle;Max_cycle;Signal;HPM_P1;HPM_P2
2021/10/13 00:01:17;;;;;;;0.83;0.80;;;16.20;99.90;;;;;;20535986;28;20219;-71
2021/10/13 00:11:21;;;;;;;0.70;0.60;;;16.10;99.90;;;;;;20495409;29;20284;-71
2021/10/13 00:21:27;;;;;;;1.40;0.80;;;16.10;99.90;;;;;;20626934;28;20196;-71
2021/10/13 00:31:31;;;;;;;1.97;1.10;;;16.40;99.90;;;;;;20546600;28;20279;-71
2021/10/13 00:41:37;;;;;;;3.83;0.73;;;16.40;99.90;;;;;;20571819;28;20665;-71
2021/10/13 00:51:43;;;;;;;2.47;0.97;;;16.40;99.90;;;;;;20572423;28;20232;-71
2021/10/13 01:01:54;;;;;;;0.47;0.37;;;16.40;99.90;;;;;;20570182;28;20602;-70
2021/10/13 01:12:12;;;;;;;1.10;0.53;;;16.40;99.90;;;;;;20571773;28;20251;-70
2021/10/13 01:22:42;;;;;;;1.67;1.57;;;16.30;99.90;;;;;;20644452;28;20679;-68
2021/10/13 01:32:58;;;;;;;0.80;0.80;;;16.40;99.90;;;;;;20652082;28;20651;-70
2021/10/13 01:43:05;;;;;;;0.97;0.87;;;16.20;99.90;;;;;;20651036;28;20199;-70
2021/10/13 01:53:11;;;;;;;2.23;1.47;;;16.10;99.90;;;;;;20650124;28;20290;-70
2021/10/13 02:03:16;;;;;;;0.70;0.60;;;16.00;99.90;;;;;;20654051;28;20200;-71
2021/10/13 02:13:22;;;;;;;2.17;1.43;;;16.20;99.90;;;;;;20665585;28;20251;-70
2021/10/13 02:23:32;;;;;;;1.20;1.10;;;16.30;99.90;;;;;;20584728;28;20283;-68
2021/10/13 02:33:38;;;;;;;2.50;2.20;;;16.40;99.90;;;;;;20584362;28;20728;-70
2021/10/13 02:43:42;;;;;;;1.27;1.17;;;16.70;99.90;;;;;;20582672;28;20295;-69
2021/10/13 02:53:52;;;;;;;1.13;0.53;;;16.90;99.90;;;;;;20583146;28;20604;-70
2021/10/13 03:04:00;;;;;;;0.60;0.60;;;16.70;99.90;;;;;;20632897;23;20735;-77
2021/10/13 03:14:07;;;;;;;2.10;0.67;;;16.60;99.90;;;;;;20670356;28;20294;-76
2021/10/13 03:24:11;;;;;;;2.30;1.93;;;16.60;99.90;;;;;;20743725;28;20233;-76
2021/10/13 03:34:17;;;;;;;2.70;0.87;;;16.70;99.90;;;;;;20742733;28;20221;-74
2021/10/13 03:44:21;;;;;;;1.50;0.83;;;16.60;99.90;;;;;;20742342;28;20238;-74
2021/10/13 03:54:26;;;;;;;0.63;0.27;;;16.60;99.90;;;;;;20740944;28;20716;-74
2021/10/13 04:04:30;;;;;;;0.93;0.57;;;16.60;99.90;;;;;;20641989;23;20721;-73
2021/10/13 04:14:36;;;;;;;0.40;0.40;;;16.70;99.90;;;;;;20666821;28;20198;-72
2021/10/13 04:24:40;;;;;;;1.27;1.17;;;16.60;99.90;;;;;;20736848;28;20343;-72
2021/10/13 04:34:45;;;;;;;1.40;0.67;;;16.50;99.90;;;;;;20736992;28;20187;-72
2021/10/13 04:44:49;;;;;;;2.63;1.07;;;16.30;99.90;;;;;;20735696;28;20242;-74
2021/10/13 04:54:54;;;;;;;1.70;0.70;;;16.30;99.90;;;;;;20734284;28;20203;-72
2021/10/13 05:04:57;;;;;;;0.87;0.87;;;16.10;99.90;;;;;;20732163;28;20238;-72
2021/10/13 05:15:02;;;;;;;1.63;1.37;;;16.20;99.90;;;;;;20718408;28;20278;-71
2021/10/13 05:25:08;;;;;;;5.53;1.83;;;16.30;99.90;;;;;;20652516;28;20226;-70
2021/10/13 05:35:35;;;;;;;2.73;1.03;;;16.30;99.90;;;;;;20652086;28;20269;-73
2021/10/13 05:45:40;;;;;;;1.37;1.10;;;16.40;99.90;;;;;;20662788;28;20234;-70
2021/10/13 05:55:45;;;;;;;3.13;1.93;;;16.40;99.90;;;;;;20664010;28;20234;-70
2021/10/13 06:05:50;;;;;;;4.47;1.30;;;16.50;99.90;;;;;;20661184;28;20235;-70
2021/10/13 06:15:55;;;;;;;1.57;0.70;;;16.50;99.90;;;;;;20681804;28;20199;-71
2021/10/13 06:25:59;;;;;;;12.53;1.67;;;16.40;99.90;;;;;;20742639;28;20712;-71
2021/10/13 06:36:06;;;;;;;0.77;0.77;;;16.50;99.90;;;;;;20694942;28;20242;-70
2021/10/13 06:46:14;;;;;;;1.37;1.27;;;16.60;99.90;;;;;;20605838;28;20231;-73
2021/10/13 06:56:20;;;;;;;0.50;0.50;;;16.60;99.90;;;;;;20586056;28;20549;-72
2021/10/13 07:06:27;;;;;;;0.53;0.53;;;16.60;99.90;;;;;;20647272;28;20227;-71
2021/10/13 07:16:32;;;;;;;1.73;1.63;;;16.60;99.90;;;;;;20625146;28;20199;-70
2021/10/13 07:26:36;;;;;;;4.37;1.80;;;16.90;99.90;;;;;;20611285;28;20225;-71
2021/10/13 07:36:42;;;;;;;2.37;1.10;;;17.00;99.90;;;;;;20615534;28;20222;-72
2021/10/13 07:46:45;;;;;;;0.50;0.50;;;17.60;99.90;;;;;;20615263;28;20223;-71
2021/10/13 07:56:55;;;;;;;0.57;0.57;;;18.00;99.90;;;;;;20615529;28;20380;-71
2021/10/13 08:07:00;;;;;;;3.83;1.20;;;18.40;99.90;;;;;;20609646;28;20255;-71
2021/10/13 08:17:07;;;;;;;2.23;1.20;;;18.60;99.90;;;;;;20641605;28;20586;-72
2021/10/13 08:27:13;;;;;;;3.30;0.73;;;18.90;99.90;;;;;;20735979;28;20656;-71
2021/10/13 08:37:18;;;;;;;1.13;1.03;;;19.00;99.90;;;;;;20670261;28;20195;-73
2021/10/13 08:47:22;;;;;;;1.23;1.13;;;19.10;99.90;;;;;;20653689;28;20221;-73
2021/10/13 08:57:30;;;;;;;1.40;0.90;;;19.10;99.90;;;;;;20649890;28;20203;-72
2021/10/13 09:07:34;;;;;;;0.53;0.43;;;19.30;99.90;;;;;;20649075;28;20231;-69
2021/10/13 09:17:53;;;;;;;1.03;0.70;;;19.80;99.90;;;;;;20684629;28;20609;-73
2021/10/13 09:27:58;;;;;;;0.47;0.47;;;20.90;99.90;;;;;;20702995;28;20255;-73
2021/10/13 09:38:03;;;;;;;0.20;0.10;;;21.90;99.90;;;;;;20648367;28;20658;-74
2021/10/13 09:48:11;;;;;;;0.40;0.40;;;21.30;99.90;;;;;;20649606;28;20676;-73
2021/10/13 09:58:30;;;;;;;0.73;0.73;;;21.10;99.90;;;;;;20648261;28;20287;-72
2021/10/13 10:09:00;;;;;;;1.30;0.80;;;21.40;99.90;;;;;;20648573;28;20255;-72
2021/10/13 10:19:24;;;;;;;0.43;0.43;;;21.20;99.90;;;;;;20696597;28;20510;-72
2021/10/13 10:29:38;;;;;;;0.20;0.20;;;21.10;99.90;;;;;;20695691;28;20272;-74
2021/10/13 10:40:07;;;;;;;0.73;0.73;;;21.90;99.90;;;;;;20582638;28;20200;-75
2021/10/13 10:50:11;;;;;;;11.20;4.75;;;22.70;99.90;;;;;;20582361;28;20266;-71
2021/10/13 11:00:38;;;;;;;0.82;0.82;;;22.40;99.90;;;;;;20580050;28;20314;-73
2021/10/13 11:10:42;;;;;;;2.90;1.20;;;22.90;99.90;;;;;;20579511;28;20220;-73
2021/10/13 11:20:48;;;;;;;1.45;1.05;;;22.20;99.90;;;;;;20701151;28;20190;-71
2021/10/13 11:30:52;;;;;;;1.27;1.17;;;23.30;99.90;;;;;;20690940;28;20238;-73
2021/10/13 11:41:07;;;;;;;1.30;0.98;;;22.70;99.90;;;;;;20656675;28;20593;-73
2021/10/13 11:51:14;;;;;;;1.75;1.02;;;22.20;99.90;;;;;;20654806;28;20537;-73
2021/10/13 12:01:28;;;;;;;1.17;0.73;;;23.20;99.90;;;;;;20656626;28;20223;-74
2021/10/13 12:11:38;;;;;;;2.67;1.95;;;25.20;99.90;;;;;;20654711;28;20281;-74
2021/10/13 12:22:02;;;;;;;1.55;1.05;;;25.30;99.90;;;;;;20721853;28;20202;-74
2021/10/13 12:32:15;;;;;;;1.67;0.98;;;25.60;99.90;;;;;;20671553;28;20250;-72
2021/10/13 12:42:25;;;;;;;0.82;0.70;;;25.90;99.90;;;;;;20648888;28;20731;-75
2021/10/13 12:52:30;;;;;;;0.35;0.35;;;26.10;99.90;;;;;;20653630;28;20227;-74
2021/10/13 13:02:38;;;;;;;1.08;0.98;;;26.00;99.90;;;;;;20651084;28;20589;-72
2021/10/13 13:12:42;;;;;;;1.13;1.00;;;26.90;99.90;;;;;;20651312;28;20223;-76
2021/10/13 13:22:48;;;;;;;0.52;0.52;;;27.80;99.90;;;;;;20728363;28;20253;-76
2021/10/13 13:32:54;;;;;;;1.00;0.88;;;27.80;99.90;;;;;;20666880;28;20223;-73
2021/10/13 13:42:59;;;;;;;3.70;1.10;;;27.80;99.90;;;;;;20651305;28;20586;-75
2021/10/13 13:53:03;;;;;;;1.35;1.10;;;27.70;99.90;;;;;;20633365;28;20231;-74
2021/10/13 14:03:08;;;;;;;1.73;1.38;;;27.90;99.90;;;;;;20654676;28;20239;-73
2021/10/13 14:13:15;;;;;;;2.25;1.65;;;27.80;99.90;;;;;;20662284;28;20281;-74
2021/10/13 14:23:20;;;;;;;1.75;1.20;;;27.70;99.90;;;;;;20742320;28;20385;-73
2021/10/13 14:33:26;;;;;;;2.72;1.10;;;27.60;99.90;;;;;;20672615;28;20689;-71
2021/10/13 14:43:32;;;;;;;1.33;1.10;;;28.10;99.90;;;;;;20658886;28;20243;-74
2021/10/13 14:53:37;;;;;;;1.42;0.80;;;27.30;99.90;;;;;;20657375;28;20759;-73
2021/10/13 15:03:42;;;;;;;1.38;1.15;;;27.00;99.90;;;;;;20659315;28;20231;-72
2021/10/13 15:13:49;;;;;;;3.75;1.25;;;26.90;99.90;;;;;;20659998;28;20219;-74
2021/10/13 15:23:55;;;;;;;1.77;1.10;;;26.00;99.90;;;;;;20737088;28;20706;-72
2021/10/13 15:33:58;;;;;;;1.38;1.00;;;25.00;99.90;;;;;;20662055;28;20314;-73
2021/10/13 15:44:04;;;;;;;0.73;0.57;;;23.80;99.90;;;;;;20653770;28;20233;-72
2021/10/13 15:54:09;;;;;;;0.32;0.30;;;22.90;99.90;;;;;;20655012;28;20563;-72
2021/10/13 16:04:14;;;;;;;0.30;0.30;;;22.60;99.90;;;;;;20653531;28;20235;-73
2021/10/13 16:14:20;;;;;;;0.20;0.20;;;22.30;99.90;;;;;;20660939;28;20226;-72
2021/10/13 16:24:26;;;;;;;0.90;0.37;;;21.90;99.90;;;;;;20729347;28;20235;-76
2021/10/13 16:34:30;;;;;;;0.20;0.20;;;21.90;99.90;;;;;;20646347;28;20226;-76
2021/10/13 16:44:35;;;;;;;0.60;0.43;;;21.60;99.90;;;;;;20649170;28;20592;-73
2021/10/13 16:54:39;;;;;;;1.47;0.57;;;21.40;99.90;;;;;;20648329;28;20246;-75
2021/10/13 17:04:44;;;;;;;0.40;0.30;;;21.20;99.90;;;;;;20647685;28;20281;-72
2021/10/13 17:14:50;;;;;;;0.70;0.40;;;21.00;99.90;;;;;;20659034;28;20528;-74
2021/10/13 17:24:58;;;;;;;1.53;1.20;;;20.70;99.90;;;;;;20729825;28;20229;-72
2021/10/13 17:35:06;;;;;;;0.60;0.57;;;20.40;99.90;;;;;;20699610;28;20231;-77
2021/10/13 17:45:13;;;;;;;0.70;0.67;;;20.20;99.90;;;;;;20656095;28;20195;-79
2021/10/13 17:55:17;;;;;;;5.30;0.70;;;19.90;99.90;;;;;;20642023;28;20301;-77
2021/10/13 18:05:22;;;;;;;0.77;0.43;;;19.70;99.90;;;;;;20638562;28;20319;-77
2021/10/13 18:15:26;;;;;;;0.37;0.37;;;19.40;99.90;;;;;;20666750;28;20246;-79
2021/10/13 18:25:31;;;;;;;0.77;0.50;;;18.60;99.90;;;;;;20728372;28;20195;-76
2021/10/13 18:35:34;;;;;;;0.50;0.50;;;18.50;99.90;;;;;;20687780;28;20696;-73
2021/10/13 18:45:39;;;;;;;0.47;0.37;;;18.10;99.90;;;;;;20649218;28;20220;-74
2021/10/13 18:55:43;;;;;;;0.47;0.47;;;18.00;99.90;;;;;;20660258;28;20314;-75
2021/10/13 19:05:48;;;;;;;12.33;1.10;;;17.90;99.90;;;;;;20660791;28;20227;-77
2021/10/13 19:15:52;;;;;;;0.73;0.60;;;18.10;99.90;;;;;;20680490;28;20242;-76
2021/10/13 19:25:57;;;;;;;0.50;0.50;;;18.10;99.90;;;;;;20739751;28;20213;-77
2021/10/13 19:36:00;;;;;;;0.60;0.60;;;18.10;99.90;;;;;;20695482;28;20322;-76
2021/10/13 19:46:05;;;;;;;1.30;0.60;;;18.10;99.90;;;;;;20657232;28;20224;-77
2021/10/13 19:56:09;;;;;;;0.53;0.50;;;17.90;99.90;;;;;;20656489;28;20354;-73
2021/10/13 20:06:14;;;;;;;0.20;0.13;;;17.80;99.90;;;;;;20655823;28;20330;-76
2021/10/13 20:16:18;;;;;;;0.20;0.20;;;17.70;99.90;;;;;;20684035;28;20223;-78
2021/10/13 20:26:23;;;;;;;0.20;0.20;;;17.60;99.90;;;;;;20748301;28;20223;-79
2021/10/13 20:36:28;;;;;;;10.40;1.33;;;17.50;99.90;;;;;;20700736;28;20230;-75
2021/10/13 20:46:34;;;;;;;0.30;0.30;;;17.80;99.90;;;;;;20657891;28;20619;-78
2021/10/13 20:56:38;;;;;;;0.30;0.30;;;17.80;99.90;;;;;;20654007;28;20227;-76
2021/10/13 21:06:43;;;;;;;0.93;0.50;;;18.00;99.90;;;;;;20651175;28;20577;-75
2021/10/13 21:16:47;;;;;;;0.30;0.30;;;17.80;99.90;;;;;;20682033;28;20230;-76
2021/10/13 21:26:54;;;;;;;4.20;0.50;;;17.50;99.90;;;;;;20733584;28;20198;-76
2021/10/13 21:36:57;;;;;;;0.63;0.57;;;17.50;99.90;;;;;;20682908;28;20699;-77
2021/10/13 21:47:04;;;;;;;1.60;0.50;;;17.30;99.90;;;;;;20651024;28;20194;-76
2021/10/13 21:57:08;;;;;;;0.33;0.30;;;17.30;99.90;;;;;;20651004;28;20550;-77
2021/10/13 22:07:13;;;;;;;0.50;0.50;;;17.30;99.90;;;;;;20650874;28;20238;-75
2021/10/13 22:17:17;;;;;;;0.93;0.73;;;17.40;99.90;;;;;;20684052;28;20282;-77
2021/10/13 22:27:23;;;;;;;0.87;0.73;;;17.40;99.90;;;;;;20744240;28;20287;-78
2021/10/13 22:37:26;;;;;;;2.00;0.50;;;17.70;99.90;;;;;;20692930;28;20241;-76
2021/10/13 22:47:32;;;;;;;0.47;0.47;;;17.70;99.90;;;;;;20663637;28;20315;-76
2021/10/13 22:57:35;;;;;;;0.70;0.70;;;17.90;99.90;;;;;;20664724;28;20219;-77
2021/10/13 23:07:40;;;;;;;0.30;0.30;;;17.40;99.90;;;;;;20661803;28;20331;-77
2021/10/13 23:17:44;;;;;;;0.23;0.23;;;16.90;99.90;;;;;;20698241;28;20619;-78
2021/10/13 23:27:49;;;;;;;0.40;0.30;;;16.70;99.90;;;;;;20742175;28;20215;-78
2021/10/13 23:37:53;;;;;;;0.27;0.27;;;16.50;99.90;;;;;;20685396;28;20645;-76
2021/10/13 23:47:58;;;;;;;0.30;0.30;;;16.20;99.90;;;;;;20660879;28;20229;-77
2021/10/13 23:58:02;;;;;;;4.37;0.60;;;16.00;99.90;;;;;;20658677;28;20225;-75
